createdAt,value
2019-01-11T00:00:30.949Z,994.22
2019-01-11T00:01:30.946Z,994.10
2019-01-11T00:02:30.932Z,994.07
2019-01-11T00:03:30.959Z,994.10
2019-01-11T00:04:30.911Z,993.93
2019-01-11T00:05:30.896Z,993.98
2019-01-11T00:06:30.898Z,993.82
2019-01-11T00:07:30.878Z,993.92
2019-01-11T00:08:30.864Z,993.82
2019-01-11T00:09:30.891Z,993.89
2019-01-11T00:10:30.843Z,993.74
2019-01-11T00:11:30.836Z,993.75
2019-01-11T00:12:30.826Z,993.69
2019-01-11T00:13:30.809Z,993.67
2019-01-11T00:14:30.797Z,993.71
2019-01-11T00:15:30.834Z,993.54
2019-01-11T00:16:30.778Z,993.50
2019-01-11T00:17:30.778Z,993.55
2019-01-11T00:18:30.777Z,993.75
2019-01-11T00:19:30.744Z,993.48
2019-01-11T00:20:30.741Z,993.60
2019-01-11T00:21:30.761Z,993.45
2019-01-11T00:22:30.711Z,993.30
2019-01-11T00:23:30.703Z,993.31
2019-01-11T00:24:30.699Z,993.41
2019-01-11T00:25:30.686Z,993.30
2019-01-11T00:26:30.724Z,993.34
2019-01-11T00:27:30.705Z,993.20
2019-01-11T00:28:30.647Z,993.33
2019-01-11T00:29:40.787Z,993.17
2019-01-11T00:30:30.626Z,993.08
2019-01-11T00:31:30.618Z,993.12
2019-01-11T00:32:30.611Z,992.91
2019-01-11T00:33:30.643Z,993.03
2019-01-11T00:34:30.586Z,993.19
2019-01-11T00:35:30.580Z,993.00
2019-01-11T00:36:30.569Z,993.05
2019-01-11T00:37:30.553Z,992.92
2019-01-11T00:38:30.547Z,992.91
2019-01-11T00:39:30.572Z,992.83
2019-01-11T00:40:30.521Z,992.82
2019-01-11T00:41:30.517Z,993.01
2019-01-11T00:42:30.504Z,992.78
2019-01-11T00:43:30.491Z,992.85
2019-01-11T00:44:30.482Z,992.77
2019-01-11T00:45:30.639Z,992.65
2019-01-11T00:46:30.458Z,992.64
2019-01-11T00:47:30.487Z,992.65
2019-01-11T00:48:30.456Z,992.61
2019-01-11T00:49:30.431Z,992.54
2019-01-11T00:50:30.411Z,992.46
2019-01-11T00:51:30.445Z,992.45
2019-01-11T00:52:30.391Z,992.47
2019-01-11T00:53:30.385Z,992.40
2019-01-11T00:54:30.375Z,992.34
2019-01-11T00:55:30.363Z,992.26
2019-01-11T00:56:30.350Z,992.58
2019-01-11T00:57:30.381Z,992.17
2019-01-11T00:58:30.326Z,992.18
2019-01-11T00:59:30.316Z,992.14
2019-01-11T01:00:40.585Z,992.05
2019-01-11T01:01:30.301Z,992.12
2019-01-11T01:02:30.289Z,992.05
2019-01-11T01:03:30.449Z,991.93
2019-01-11T01:04:30.271Z,991.91
2019-01-11T01:05:30.255Z,991.96
2019-01-11T01:06:30.252Z,991.80
2019-01-11T01:07:30.740Z,991.72
2019-01-11T01:08:30.610Z,991.75
2019-01-11T01:09:30.254Z,991.72
2019-01-11T01:10:30.204Z,991.73
2019-01-11T01:11:30.187Z,991.60
2019-01-11T01:12:30.184Z,991.65
2019-01-11T01:13:30.173Z,991.71
2019-01-11T01:14:30.157Z,991.50
2019-01-11T01:15:30.199Z,991.50
2019-01-11T01:16:30.140Z,991.51
2019-01-11T01:17:30.124Z,991.33
2019-01-11T01:18:30.111Z,991.35
2019-01-11T01:19:30.101Z,991.27
2019-01-11T01:20:30.095Z,991.10
2019-01-11T01:21:30.119Z,991.07
2019-01-11T01:22:30.069Z,991.21
2019-01-11T01:23:30.068Z,991.05
2019-01-11T01:24:30.053Z,991.10
2019-01-11T01:25:30.039Z,990.86
2019-01-11T01:26:30.029Z,990.92
2019-01-11T01:27:30.190Z,991.37
2019-01-11T01:28:30.010Z,990.91
2019-01-11T01:29:30.003Z,990.90
2019-01-11T01:30:29.993Z,990.97
2019-01-11T01:31:40.996Z,990.77
2019-01-11T01:32:30.007Z,990.78
2019-01-11T01:33:29.992Z,990.75
2019-01-11T01:34:29.947Z,990.58
2019-01-11T01:35:29.930Z,990.53
2019-01-11T01:36:29.925Z,990.71
2019-01-11T01:37:29.915Z,990.42
2019-01-11T01:38:29.899Z,990.47
2019-01-11T01:39:29.933Z,990.39
2019-01-11T01:40:29.877Z,990.53
2019-01-11T01:41:29.871Z,990.39
2019-01-11T01:42:29.864Z,990.23
2019-01-11T01:43:29.851Z,990.10
2019-01-11T01:44:29.837Z,990.12
2019-01-11T01:45:29.920Z,990.05
2019-01-11T01:46:29.819Z,990.06
2019-01-11T01:47:29.804Z,990.11
2019-01-11T01:48:29.796Z,990.09
2019-01-11T01:49:29.784Z,990.26
2019-01-11T01:50:29.780Z,990.05
2019-01-11T01:51:29.801Z,990.02
2019-01-11T01:52:29.751Z,989.88
2019-01-11T01:53:29.739Z,989.73
2019-01-11T01:54:29.728Z,989.89
2019-01-11T01:55:29.725Z,990.12
2019-01-11T01:56:29.712Z,989.81
2019-01-11T01:57:29.771Z,989.69
2019-01-11T01:58:29.685Z,989.79
2019-01-11T01:59:29.680Z,989.79
2019-01-11T02:00:29.663Z,989.68
2019-01-11T02:01:29.653Z,989.63
2019-01-11T02:02:40.313Z,989.42
2019-01-11T02:03:29.631Z,989.57
2019-01-11T02:04:29.622Z,989.58
2019-01-11T02:05:29.612Z,990.01
2019-01-11T02:06:29.605Z,989.53
2019-01-11T02:07:29.599Z,989.43
2019-01-11T02:08:29.603Z,989.33
2019-01-11T02:09:29.570Z,989.42
2019-01-11T02:10:29.560Z,989.32
2019-01-11T02:11:29.555Z,989.17
2019-01-11T02:12:29.542Z,989.18
2019-01-11T02:13:29.539Z,989.16
2019-01-11T02:14:29.555Z,989.12
2019-01-11T02:15:29.506Z,989.07
2019-01-11T02:16:29.496Z,989.08
2019-01-11T02:17:29.483Z,988.97
2019-01-11T02:18:29.478Z,988.99
2019-01-11T02:19:32.947Z,988.89
2019-01-11T02:20:29.497Z,989.07
2019-01-11T02:21:29.442Z,989.00
2019-01-11T02:22:29.432Z,988.80
2019-01-11T02:23:29.418Z,989.14
2019-01-11T02:24:29.406Z,988.78
2019-01-11T02:25:29.402Z,988.83
2019-01-11T02:26:29.428Z,989.15
2019-01-11T02:27:29.380Z,988.84
2019-01-11T02:28:29.370Z,988.88
2019-01-11T02:29:29.359Z,988.73
2019-01-11T02:30:29.347Z,988.69
2019-01-11T02:31:29.340Z,988.44
2019-01-11T02:32:29.362Z,988.64
2019-01-11T02:33:39.478Z,988.88
2019-01-11T02:34:29.303Z,988.77
2019-01-11T02:35:29.293Z,988.69
2019-01-11T02:36:29.285Z,988.69
2019-01-11T02:37:29.269Z,988.49
2019-01-11T02:38:29.344Z,988.55
2019-01-11T02:39:29.253Z,988.60
2019-01-11T02:40:29.236Z,988.77
2019-01-11T02:41:29.228Z,988.73
2019-01-11T02:42:29.223Z,988.40
2019-01-11T02:43:29.213Z,988.62
2019-01-11T02:44:29.233Z,988.39
2019-01-11T02:45:29.198Z,988.43
2019-01-11T02:46:29.173Z,988.37
2019-01-11T02:47:29.177Z,988.51
2019-01-11T02:48:29.159Z,988.38
2019-01-11T02:49:29.142Z,988.46
2019-01-11T02:50:29.170Z,988.28
2019-01-11T02:51:29.120Z,988.10
2019-01-11T02:52:29.116Z,988.44
2019-01-11T02:53:29.104Z,988.24
2019-01-11T02:54:29.088Z,988.23
2019-01-11T02:55:29.083Z,988.07
2019-01-11T02:56:29.112Z,988.11
2019-01-11T02:57:29.062Z,987.97
2019-01-11T02:58:29.047Z,987.96
2019-01-11T02:59:29.038Z,987.91
2019-01-11T03:00:29.026Z,987.86
2019-01-11T03:01:29.019Z,987.90
2019-01-11T03:02:29.057Z,987.81
2019-01-11T03:03:28.997Z,987.90
2019-01-11T03:04:39.354Z,987.72
2019-01-11T03:05:28.993Z,987.73
2019-01-11T03:06:28.964Z,987.61
2019-01-11T03:07:28.962Z,987.88
2019-01-11T03:08:28.978Z,987.67
2019-01-11T03:09:28.940Z,987.68
2019-01-11T03:10:28.929Z,987.80
2019-01-11T03:11:28.908Z,987.53
2019-01-11T03:12:28.898Z,987.49
2019-01-11T03:13:28.891Z,987.36
2019-01-11T03:14:28.926Z,987.39
2019-01-11T03:15:28.874Z,987.39
2019-01-11T03:16:28.857Z,987.58
2019-01-11T03:17:28.854Z,987.18
2019-01-11T03:18:28.839Z,987.18
2019-01-11T03:19:28.828Z,987.20
2019-01-11T03:20:28.987Z,987.12
2019-01-11T03:21:28.806Z,987.32
2019-01-11T03:22:28.791Z,987.17
2019-01-11T03:23:28.788Z,987.04
2019-01-11T03:24:28.769Z,987.01
2019-01-11T03:25:28.764Z,987.11
2019-01-11T03:26:28.782Z,986.93
2019-01-11T03:27:28.742Z,986.86
2019-01-11T03:28:28.732Z,987.05
2019-01-11T03:29:28.716Z,986.87
2019-01-11T03:30:28.713Z,986.75
2019-01-11T03:31:28.705Z,987.04
2019-01-11T03:32:28.733Z,987.06
2019-01-11T03:33:28.675Z,986.88
2019-01-11T03:34:28.663Z,986.68
2019-01-11T03:35:38.870Z,986.67
2019-01-11T03:36:28.644Z,986.70
2019-01-11T03:37:28.636Z,986.67
2019-01-11T03:38:28.665Z,986.83
2019-01-11T03:39:28.615Z,986.73
2019-01-11T03:40:28.608Z,986.76
2019-01-11T03:41:28.604Z,986.54
2019-01-11T03:42:28.580Z,986.74
2019-01-11T03:43:28.569Z,986.65
2019-01-11T03:44:28.657Z,986.44
2019-01-11T03:45:30.053Z,986.47
2019-01-11T03:46:28.542Z,986.54
2019-01-11T03:47:28.531Z,986.33
2019-01-11T03:48:28.516Z,986.32
2019-01-11T03:49:28.512Z,986.38
2019-01-11T03:50:28.540Z,986.34
2019-01-11T03:51:28.488Z,986.29
2019-01-11T03:52:28.478Z,986.11
2019-01-11T03:53:28.461Z,986.09
2019-01-11T03:54:28.454Z,986.03
2019-01-11T03:55:28.439Z,986.00
2019-01-11T03:56:28.470Z,985.88
2019-01-11T03:57:28.424Z,985.90
2019-01-11T03:58:28.410Z,985.86
2019-01-11T03:59:28.402Z,985.89
2019-01-11T04:00:28.390Z,985.94
2019-01-11T04:01:28.381Z,985.80
2019-01-11T04:02:28.408Z,985.87
2019-01-11T04:03:28.362Z,985.83
2019-01-11T04:04:28.357Z,985.69
2019-01-11T04:05:28.339Z,985.75
2019-01-11T04:06:38.533Z,985.70
2019-01-11T04:07:28.317Z,985.61
2019-01-11T04:08:28.340Z,985.46
2019-01-11T04:09:28.295Z,985.56
2019-01-11T04:10:28.288Z,985.54
2019-01-11T04:11:28.268Z,985.32
2019-01-11T04:12:28.261Z,985.48
2019-01-11T04:13:30.623Z,985.37
2019-01-11T04:14:28.276Z,985.55
2019-01-11T04:15:28.232Z,985.46
2019-01-11T04:16:28.217Z,985.52
2019-01-11T04:17:28.210Z,985.53
2019-01-11T04:18:28.204Z,985.37
2019-01-11T04:19:28.186Z,985.32
2019-01-11T04:20:28.213Z,985.19
2019-01-11T04:21:28.166Z,985.28
2019-01-11T04:22:29.601Z,985.13
2019-01-11T04:23:28.150Z,985.16
2019-01-11T04:24:28.141Z,985.14
2019-01-11T04:25:28.118Z,985.09
2019-01-11T04:26:28.151Z,985.09
2019-01-11T04:27:28.098Z,985.22
2019-01-11T04:28:28.089Z,985.00
2019-01-11T04:29:28.077Z,985.09
2019-01-11T04:30:28.069Z,985.00
2019-01-11T04:31:28.060Z,985.06
2019-01-11T04:32:28.222Z,984.91
2019-01-11T04:33:28.041Z,985.03
2019-01-11T04:34:28.031Z,984.95
2019-01-11T04:35:28.017Z,984.88
2019-01-11T04:36:28.016Z,984.93
2019-01-11T04:37:40.428Z,984.92
2019-01-11T04:38:27.985Z,984.95
2019-01-11T04:39:27.972Z,984.80
2019-01-11T04:40:34.143Z,984.78
2019-01-11T04:41:28.953Z,984.76
2019-01-11T04:42:27.944Z,984.71
2019-01-11T04:43:27.969Z,984.72
2019-01-11T04:44:27.918Z,984.78
2019-01-11T04:45:27.918Z,984.49
2019-01-11T04:46:27.898Z,984.72
2019-01-11T04:47:27.895Z,984.67
2019-01-11T04:48:27.879Z,984.75
2019-01-11T04:49:27.915Z,984.67
2019-01-11T04:50:27.940Z,984.70
2019-01-11T04:51:27.842Z,984.63
2019-01-11T04:52:27.836Z,984.67
2019-01-11T04:53:27.824Z,984.64
2019-01-11T04:54:27.827Z,984.68
2019-01-11T04:55:27.846Z,984.55
2019-01-11T04:56:27.794Z,984.65
2019-01-11T04:57:27.787Z,984.66
2019-01-11T04:58:27.779Z,984.66
2019-01-11T04:59:27.760Z,984.62
2019-01-11T05:00:27.751Z,984.57
2019-01-11T05:01:27.893Z,984.62
2019-01-11T05:02:27.745Z,984.53
2019-01-11T05:03:27.728Z,984.47
2019-01-11T05:04:27.709Z,984.44
2019-01-11T05:05:27.697Z,984.40
2019-01-11T05:06:27.696Z,984.50
2019-01-11T05:07:27.722Z,984.48
2019-01-11T05:08:38.417Z,984.42
2019-01-11T05:09:27.655Z,984.41
2019-01-11T05:10:27.648Z,984.55
2019-01-11T05:11:27.635Z,984.46
2019-01-11T05:12:27.627Z,984.33
2019-01-11T05:13:27.663Z,984.20
2019-01-11T05:14:27.617Z,984.32
2019-01-11T05:15:27.590Z,984.42
2019-01-11T05:16:27.586Z,984.25
2019-01-11T05:17:27.573Z,984.28
2019-01-11T05:18:27.560Z,984.16
2019-01-11T05:19:27.592Z,984.28
2019-01-11T05:20:27.538Z,984.16
2019-01-11T05:21:27.528Z,984.01
2019-01-11T05:22:27.516Z,984.06
2019-01-11T05:23:27.523Z,984.16
2019-01-11T05:24:27.499Z,984.05
2019-01-11T05:25:27.759Z,984.04
2019-01-11T05:26:27.481Z,984.12
2019-01-11T05:27:27.467Z,984.03
2019-01-11T05:28:27.458Z,983.98
2019-01-11T05:29:27.697Z,984.03
2019-01-11T05:30:27.431Z,984.05
2019-01-11T05:31:27.461Z,984.04
2019-01-11T05:32:27.410Z,984.04
2019-01-11T05:33:27.399Z,984.00
2019-01-11T05:34:27.404Z,983.94
2019-01-11T05:35:27.388Z,983.99
2019-01-11T05:36:27.372Z,984.04
2019-01-11T05:37:27.397Z,983.93
2019-01-11T05:38:27.344Z,983.96
2019-01-11T05:39:37.564Z,983.96
2019-01-11T05:40:27.324Z,983.90
2019-01-11T05:41:27.320Z,984.00
2019-01-11T05:42:34.594Z,984.02
2019-01-11T05:43:27.295Z,983.84
2019-01-11T05:44:27.290Z,983.91
2019-01-11T05:45:27.274Z,983.75
2019-01-11T05:46:27.269Z,983.77
2019-01-11T05:47:27.263Z,983.73
2019-01-11T05:48:27.275Z,983.66
2019-01-11T05:49:27.235Z,983.60
2019-01-11T05:50:27.225Z,983.66
2019-01-11T05:51:27.212Z,983.56
2019-01-11T05:52:27.197Z,983.54
2019-01-11T05:53:27.198Z,983.44
2019-01-11T05:54:27.227Z,983.50
2019-01-11T05:55:27.169Z,983.46
2019-01-11T05:56:27.191Z,983.43
2019-01-11T05:57:27.151Z,983.38
2019-01-11T05:58:27.141Z,983.30
2019-01-11T05:59:27.132Z,983.37
2019-01-11T06:00:27.144Z,983.29
2019-01-11T06:01:27.108Z,983.26
2019-01-11T06:02:27.098Z,983.27
2019-01-11T06:03:27.087Z,983.26
2019-01-11T06:04:27.072Z,983.22
2019-01-11T06:05:27.068Z,983.30
2019-01-11T06:06:27.096Z,983.26
2019-01-11T06:07:27.214Z,983.24
2019-01-11T06:08:27.037Z,983.23
2019-01-11T06:09:27.017Z,983.20
2019-01-11T06:10:27.008Z,983.22
2019-01-11T06:11:27.026Z,983.06
2019-01-11T06:12:27.186Z,983.10
2019-01-11T06:13:37.540Z,982.93
2019-01-11T06:14:26.969Z,982.99
2019-01-11T06:15:26.992Z,983.07
2019-01-11T06:16:26.959Z,982.99
2019-01-11T06:17:26.933Z,982.97
2019-01-11T06:18:26.962Z,983.02
2019-01-11T06:19:26.928Z,983.05
2019-01-11T06:20:30.461Z,982.88
2019-01-11T06:21:26.927Z,983.04
2019-01-11T06:22:26.882Z,982.99
2019-01-11T06:23:26.872Z,983.05
2019-01-11T06:24:26.899Z,983.22
2019-01-11T06:25:26.860Z,983.01
2019-01-11T06:26:26.871Z,982.99
2019-01-11T06:27:26.830Z,982.91
2019-01-11T06:28:26.820Z,983.08
2019-01-11T06:29:26.925Z,982.97
2019-01-11T06:30:26.946Z,982.95
2019-01-11T06:31:26.788Z,982.92
2019-01-11T06:32:26.780Z,982.87
2019-01-11T06:33:26.774Z,982.90
2019-01-11T06:34:26.760Z,982.87
2019-01-11T06:35:26.747Z,982.84
2019-01-11T06:36:26.905Z,982.88
2019-01-11T06:37:26.748Z,982.85
2019-01-11T06:38:26.720Z,982.81
2019-01-11T06:39:26.700Z,982.86
2019-01-11T06:40:26.690Z,982.80
2019-01-11T06:41:26.695Z,982.70
2019-01-11T06:42:26.686Z,982.57
2019-01-11T06:43:26.707Z,982.71
2019-01-11T06:44:39.119Z,982.67
2019-01-11T06:45:26.675Z,982.55
2019-01-11T06:46:26.625Z,982.49
2019-01-11T06:47:26.618Z,982.45
2019-01-11T06:48:26.625Z,982.47
2019-01-11T06:49:26.595Z,982.37
2019-01-11T06:50:26.590Z,982.41
2019-01-11T06:51:26.590Z,982.39
2019-01-11T06:52:26.576Z,982.35
2019-01-11T06:53:26.552Z,982.37
2019-01-11T06:54:26.591Z,982.33
2019-01-11T06:55:26.533Z,982.46
2019-01-11T06:56:26.525Z,982.41
2019-01-11T06:57:26.505Z,982.36
2019-01-11T06:58:26.495Z,982.37
2019-01-11T06:59:26.485Z,982.39
2019-01-11T07:00:26.532Z,982.38
2019-01-11T07:01:26.472Z,982.38
2019-01-11T07:02:26.463Z,982.28
2019-01-11T07:03:26.448Z,982.25
2019-01-11T07:04:26.441Z,982.22
2019-01-11T07:05:26.431Z,982.35
2019-01-11T07:06:26.516Z,982.08
2019-01-11T07:07:26.438Z,982.04
2019-01-11T07:08:26.462Z,982.05
2019-01-11T07:09:26.388Z,982.14
2019-01-11T07:10:26.369Z,982.11
2019-01-11T07:11:26.363Z,982.06
2019-01-11T07:12:26.396Z,982.14
2019-01-11T07:13:26.355Z,981.95
2019-01-11T07:14:26.323Z,981.99
2019-01-11T07:15:36.860Z,981.97
2019-01-11T07:16:26.310Z,981.98
2019-01-11T07:17:26.316Z,982.08
2019-01-11T07:18:26.330Z,982.07
2019-01-11T07:19:26.271Z,982.08
2019-01-11T07:20:26.327Z,981.96
2019-01-11T07:21:26.265Z,982.00
2019-01-11T07:22:26.240Z,982.00
2019-01-11T07:23:26.378Z,982.00
2019-01-11T07:24:26.315Z,981.87
2019-01-11T07:25:26.215Z,981.97
2019-01-11T07:26:26.222Z,981.82
2019-01-11T07:27:26.212Z,981.74
2019-01-11T07:28:26.184Z,981.70
2019-01-11T07:29:26.165Z,981.82
2019-01-11T07:30:26.185Z,981.76
2019-01-11T07:31:26.160Z,981.63
2019-01-11T07:32:26.346Z,981.76
2019-01-11T07:33:26.143Z,981.78
2019-01-11T07:34:26.114Z,981.70
2019-01-11T07:35:26.107Z,981.68
2019-01-11T07:36:26.132Z,981.65
2019-01-11T07:37:26.092Z,981.62
2019-01-11T07:38:26.067Z,981.60
2019-01-11T07:39:26.056Z,981.57
2019-01-11T07:40:26.053Z,981.65
2019-01-11T07:41:26.039Z,981.52
2019-01-11T07:42:26.067Z,981.58
2019-01-11T07:43:26.018Z,981.45
2019-01-11T07:44:26.020Z,981.40
2019-01-11T07:45:26.000Z,981.43
2019-01-11T07:46:38.115Z,981.31
2019-01-11T07:47:25.980Z,981.26
2019-01-11T07:48:26.019Z,981.31
2019-01-11T07:49:25.954Z,981.28
2019-01-11T07:50:25.965Z,981.25
2019-01-11T07:51:25.938Z,981.26
2019-01-11T07:52:25.925Z,981.23
2019-01-11T07:53:25.914Z,981.28
2019-01-11T07:54:25.942Z,981.26
2019-01-11T07:59:33.539Z,981.32
2019-01-11T08:00:33.466Z,981.26
2019-01-11T08:01:33.636Z,981.41
2019-01-11T08:02:33.478Z,981.37
2019-01-11T08:03:33.435Z,981.23
2019-01-11T08:04:33.432Z,981.22
2019-01-11T08:05:33.459Z,981.21
2019-01-11T08:06:33.396Z,981.26
2019-01-11T08:07:33.399Z,981.27
2019-01-11T08:08:33.393Z,981.24
2019-01-11T08:09:33.378Z,981.29
2019-01-11T08:10:33.357Z,981.27
2019-01-11T08:11:33.401Z,981.28
2019-01-11T08:12:33.339Z,981.27
2019-01-11T08:13:33.334Z,981.25
2019-01-11T08:14:33.314Z,981.23
2019-01-11T08:15:33.336Z,981.19
2019-01-11T08:16:33.294Z,981.21
2019-01-11T08:17:33.323Z,981.15
2019-01-11T08:18:33.273Z,981.11
2019-01-11T08:19:33.277Z,981.21
2019-01-11T08:20:33.261Z,981.25
2019-01-11T08:21:33.232Z,981.31
2019-01-11T08:22:33.229Z,981.22
2019-01-11T08:23:33.267Z,981.25
2019-01-11T08:24:33.246Z,981.24
2019-01-11T08:25:33.195Z,981.29
2019-01-11T08:26:33.201Z,981.35
2019-01-11T08:27:33.178Z,981.26
2019-01-11T08:28:33.177Z,981.24
2019-01-11T08:29:40.578Z,981.26
2019-01-11T08:30:33.131Z,981.26
2019-01-11T08:31:34.866Z,981.21
2019-01-11T08:32:33.143Z,981.15
2019-01-11T08:33:33.104Z,981.25
2019-01-11T08:34:33.112Z,981.15
2019-01-11T08:35:33.126Z,981.24
2019-01-11T08:36:33.074Z,981.12
2019-01-11T08:37:33.054Z,981.12
2019-01-11T08:38:33.056Z,981.21
2019-01-11T08:39:33.044Z,981.15
2019-01-11T08:40:33.032Z,981.13
2019-01-11T08:41:33.056Z,981.14
2019-01-11T08:42:33.003Z,981.07
2019-01-11T08:43:32.994Z,981.15
2019-01-11T08:44:33.022Z,981.08
2019-01-11T08:45:32.973Z,981.09
2019-01-11T08:46:32.965Z,981.10
2019-01-11T08:47:32.986Z,981.08
2019-01-11T08:48:32.940Z,981.04
2019-01-11T08:49:32.934Z,981.09
2019-01-11T08:50:32.914Z,981.01
2019-01-11T08:51:32.913Z,981.07
2019-01-11T08:52:32.891Z,981.02
2019-01-11T08:53:32.934Z,981.04
2019-01-11T08:54:32.896Z,981.00
2019-01-11T08:55:32.868Z,981.03
2019-01-11T08:56:32.851Z,981.13
2019-01-11T08:57:32.855Z,981.03
2019-01-11T08:58:32.832Z,981.01
2019-01-11T08:59:32.860Z,980.96
2019-01-11T09:00:42.923Z,980.87
2019-01-11T09:01:32.822Z,980.86
2019-01-11T09:02:32.788Z,980.85
2019-01-11T09:03:32.779Z,980.86
2019-01-11T09:04:32.768Z,980.98
2019-01-11T09:05:32.791Z,980.89
2019-01-11T09:06:32.744Z,980.91
2019-01-11T09:07:32.732Z,980.78
2019-01-11T09:08:32.739Z,980.73
2019-01-11T09:09:32.707Z,980.74
2019-01-11T09:10:32.700Z,980.74
2019-01-11T09:11:32.727Z,980.70
2019-01-11T09:12:32.682Z,980.70
2019-01-11T09:13:32.667Z,980.70
2019-01-11T09:14:32.658Z,980.75
2019-01-11T09:15:32.654Z,980.63
2019-01-11T09:16:32.766Z,980.67
2019-01-11T09:17:32.666Z,980.68
2019-01-11T09:18:32.629Z,980.82
2019-01-11T09:19:32.601Z,980.63
2019-01-11T09:20:32.591Z,980.57
2019-01-11T09:21:32.601Z,980.61
2019-01-11T09:22:32.577Z,980.61
2019-01-11T09:23:32.604Z,980.65
2019-01-11T09:24:32.553Z,980.65
2019-01-11T09:25:32.560Z,980.54
2019-01-11T09:26:32.541Z,980.55
2019-01-11T09:27:32.525Z,980.66
2019-01-11T09:28:32.505Z,980.68
2019-01-11T09:29:32.531Z,980.63
2019-01-11T09:30:32.480Z,980.68
2019-01-11T09:31:43.410Z,980.60
2019-01-11T09:32:32.460Z,980.56
2019-01-11T09:33:32.484Z,980.52
2019-01-11T09:34:32.437Z,980.54
2019-01-11T09:35:32.463Z,980.50
2019-01-11T09:36:32.415Z,980.43
2019-01-11T09:37:32.411Z,980.45
2019-01-11T09:38:32.395Z,980.41
2019-01-11T09:39:32.395Z,980.40
2019-01-11T09:40:32.373Z,980.31
2019-01-11T09:41:32.442Z,980.32
2019-01-11T09:42:32.353Z,980.33
2019-01-11T09:43:32.343Z,980.22
2019-01-11T09:44:32.334Z,980.28
2019-01-11T09:45:32.325Z,980.26
2019-01-11T09:46:32.317Z,980.19
2019-01-11T09:47:32.349Z,980.19
2019-01-11T09:48:32.370Z,980.23
2019-01-11T09:49:32.490Z,980.25
2019-01-11T09:50:32.266Z,980.23
2019-01-11T09:51:32.287Z,980.25
2019-01-11T09:52:32.273Z,980.24
2019-01-11T09:53:32.252Z,980.16
2019-01-11T09:54:32.228Z,980.23
2019-01-11T09:55:32.213Z,980.23
2019-01-11T09:56:32.213Z,980.22
2019-01-11T09:57:32.193Z,980.27
2019-01-11T09:58:32.195Z,980.23
2019-01-11T09:59:35.138Z,980.16
2019-01-11T10:00:32.164Z,980.18
2019-01-11T10:01:32.147Z,980.14
2019-01-11T10:02:42.885Z,980.20
2019-01-11T10:03:32.127Z,980.13
2019-01-11T10:04:32.120Z,980.12
2019-01-11T10:05:32.132Z,980.13
2019-01-11T10:06:32.094Z,980.13
2019-01-11T10:07:32.088Z,980.14
2019-01-11T10:08:32.108Z,980.11
2019-01-11T10:09:32.068Z,980.34
2019-01-11T10:10:32.051Z,980.16
2019-01-11T10:11:32.092Z,980.10
2019-01-11T10:12:32.040Z,980.01
2019-01-11T10:13:32.057Z,979.92
2019-01-11T10:14:32.018Z,979.94
2019-01-11T10:15:31.997Z,979.90
2019-01-11T10:16:31.988Z,979.88
2019-01-11T10:17:32.000Z,979.90
2019-01-11T10:18:31.964Z,979.90
2019-01-11T10:19:31.976Z,979.87
2019-01-11T10:20:31.960Z,979.94
2019-01-11T10:21:31.958Z,979.91
2019-01-11T10:22:31.925Z,979.89
2019-01-11T10:23:32.317Z,979.86
2019-01-11T10:24:31.901Z,979.84
2019-01-11T10:25:31.903Z,979.79
2019-01-11T10:26:31.886Z,979.85
2019-01-11T10:27:31.877Z,979.80
2019-01-11T10:28:31.860Z,979.80
2019-01-11T10:29:31.889Z,979.89
2019-01-11T10:30:31.839Z,979.76
2019-01-11T10:31:31.839Z,979.72
2019-01-11T10:32:31.820Z,979.67
2019-01-11T10:33:42.335Z,979.70
2019-01-11T10:34:31.796Z,979.67
2019-01-11T10:35:31.834Z,979.74
2019-01-11T10:36:31.777Z,979.67
2019-01-11T10:37:33.178Z,979.69
2019-01-11T10:38:31.755Z,979.65
2019-01-11T10:39:31.736Z,979.63
2019-01-11T10:40:31.729Z,979.61
2019-01-11T10:41:31.769Z,979.65
2019-01-11T10:42:31.724Z,979.55
2019-01-11T10:43:31.700Z,979.52
2019-01-11T10:44:31.688Z,979.53
2019-01-11T10:45:31.675Z,979.53
2019-01-11T10:46:31.664Z,979.51
2019-01-11T10:47:31.698Z,979.62
2019-01-11T10:48:31.644Z,979.58
2019-01-11T10:49:31.633Z,979.62
2019-01-11T10:50:31.619Z,979.54
2019-01-11T10:51:31.609Z,979.50
2019-01-11T10:52:31.597Z,979.51
2019-01-11T10:53:31.769Z,979.64
2019-01-11T10:54:31.578Z,979.42
2019-01-11T10:55:31.568Z,979.44
2019-01-11T10:56:31.553Z,979.36
2019-01-11T10:57:31.549Z,979.49
2019-01-11T10:58:31.535Z,979.37
2019-01-11T10:59:31.559Z,979.22
2019-01-11T11:00:31.514Z,979.30
2019-01-11T11:01:31.505Z,979.21
2019-01-11T11:02:31.491Z,979.28
2019-01-11T11:03:31.537Z,979.15
2019-01-11T11:04:41.686Z,979.21
2019-01-11T11:05:31.459Z,979.31
2019-01-11T11:06:31.449Z,979.16
2019-01-11T11:07:31.441Z,979.23
2019-01-11T11:08:31.451Z,979.17
2019-01-11T11:09:31.415Z,979.19
2019-01-11T11:10:31.430Z,979.17
2019-01-11T11:11:31.395Z,979.08
2019-01-11T11:12:31.380Z,979.08
2019-01-11T11:13:31.382Z,979.10
2019-01-11T11:14:31.364Z,979.07
2019-01-11T11:15:31.349Z,979.00
2019-01-11T11:16:32.954Z,978.94
2019-01-11T11:17:31.333Z,978.96
2019-01-11T11:18:31.315Z,978.92
2019-01-11T11:19:31.305Z,978.96
2019-01-11T11:20:31.295Z,978.90
2019-01-11T11:21:34.691Z,978.88
2019-01-11T11:22:31.319Z,978.88
2019-01-11T11:23:31.264Z,978.87
2019-01-11T11:24:31.256Z,978.87
2019-01-11T11:25:31.243Z,978.81
2019-01-11T11:26:31.232Z,978.95
2019-01-11T11:27:31.221Z,978.77
2019-01-11T11:28:31.315Z,978.79
2019-01-11T11:29:31.199Z,978.91
2019-01-11T11:30:31.192Z,978.77
2019-01-11T11:31:31.190Z,978.85
2019-01-11T11:32:31.172Z,978.84
2019-01-11T11:33:31.155Z,978.77
2019-01-11T11:34:31.315Z,978.85
2019-01-11T11:35:43.107Z,978.70
2019-01-11T11:36:31.118Z,978.76
2019-01-11T11:37:31.107Z,978.76
2019-01-11T11:38:31.104Z,978.69
2019-01-11T11:39:31.095Z,978.73
2019-01-11T11:40:31.150Z,978.57
2019-01-11T11:41:31.068Z,978.63
2019-01-11T11:42:31.054Z,978.82
2019-01-11T11:43:31.044Z,978.75
2019-01-11T11:44:31.046Z,978.60
2019-01-11T11:45:31.039Z,978.53
2019-01-11T11:46:31.124Z,978.66
2019-01-11T11:47:31.002Z,978.78
2019-01-11T11:48:30.989Z,978.50
2019-01-11T11:49:30.980Z,978.44
2019-01-11T11:50:30.980Z,978.43
2019-01-11T11:51:30.960Z,978.62
2019-01-11T11:52:31.159Z,978.54
2019-01-11T11:53:30.936Z,978.35
2019-01-11T11:54:30.926Z,978.40
2019-01-11T11:55:30.920Z,978.42
2019-01-11T11:56:30.902Z,978.47
2019-01-11T11:57:30.892Z,978.47
2019-01-11T11:58:30.925Z,978.35
2019-01-11T11:59:30.878Z,978.20
2019-01-11T12:00:30.869Z,978.26
2019-01-11T12:01:30.853Z,978.31
2019-01-11T12:02:30.840Z,978.35
2019-01-11T12:03:30.825Z,978.40
2019-01-11T12:04:31.086Z,978.32
2019-01-11T12:05:30.807Z,978.23
2019-01-11T12:06:40.812Z,978.21
2019-01-11T12:07:30.781Z,978.27
2019-01-11T12:08:30.771Z,978.12
2019-01-11T12:09:30.761Z,978.27
2019-01-11T12:10:30.790Z,978.17
2019-01-11T12:11:30.737Z,978.09
2019-01-11T12:12:31.485Z,978.05
2019-01-11T12:13:34.441Z,978.03
2019-01-11T12:14:30.721Z,978.08
2019-01-11T12:15:30.695Z,978.04
2019-01-11T12:16:30.730Z,977.92
2019-01-11T12:17:30.672Z,977.97
2019-01-11T12:18:30.667Z,977.95
2019-01-11T12:19:30.659Z,977.86
2019-01-11T12:20:30.644Z,977.90
2019-01-11T12:21:30.641Z,977.94
2019-01-11T12:22:30.634Z,977.94
2019-01-11T12:23:30.616Z,977.90
2019-01-11T12:24:30.600Z,977.90
2019-01-11T12:25:30.591Z,977.97
2019-01-11T12:26:30.579Z,977.90
2019-01-11T12:27:30.573Z,977.95
2019-01-11T12:28:30.598Z,977.98
2019-01-11T12:29:30.547Z,977.87
2019-01-11T12:30:30.547Z,977.77
2019-01-11T12:31:30.523Z,977.84
2019-01-11T12:32:30.512Z,977.77